Time;durP1;ratioP1;P1;durP2;ratioP2;P2;SDS_P1;SDS_P2;PMS_P1;PMS_P2;Temp;Humidity;BMP_temperature;BMP_pressure;BME280_temperature;BME280_humidity;BME280_pressure;Samples;Min_cycle;Max_cycle;Signal;HPM_P1;HPM_P2
2024/02/02 00:00:45;;;;;;;14.30;7.80;;;8.40;99.90;;;;;;5017248;28;20602;-67
2024/02/02 00:03:11;;;;;;;11.80;6.60;;;8.40;99.90;;;;;;5011588;28;20183;-68
2024/02/02 00:05:36;;;;;;;12.27;7.03;;;8.40;99.90;;;;;;5019835;28;20659;-68
2024/02/02 00:08:02;;;;;;;11.20;7.27;;;8.30;99.90;;;;;;5020689;28;20267;-68
2024/02/02 00:10:28;;;;;;;16.43;7.07;;;8.30;99.90;;;;;;5020357;28;20193;-68
2024/02/02 00:12:55;;;;;;;16.80;8.50;;;8.30;99.90;;;;;;5020002;28;20188;-68
2024/02/02 00:15:21;;;;;;;17.00;7.60;;;8.30;99.90;;;;;;5024206;28;20220;-68
2024/02/02 00:17:47;;;;;;;13.13;8.80;;;8.20;99.90;;;;;;5022151;28;21006;-67
2024/02/02 00:20:14;;;;;;;19.23;9.47;;;8.20;99.90;;;;;;5017129;28;20208;-68
2024/02/02 00:22:39;;;;;;;13.50;9.50;;;8.20;99.90;;;;;;5022917;28;20500;-68
2024/02/02 00:25:05;;;;;;;15.03;9.30;;;8.20;99.90;;;;;;5019131;28;20470;-68
2024/02/02 00:27:31;;;;;;;22.03;9.50;;;8.10;99.90;;;;;;5020596;28;20195;-68
2024/02/02 00:29:57;;;;;;;10.50;8.33;;;8.10;99.90;;;;;;5016045;28;20423;-68
2024/02/02 00:32:22;;;;;;;10.17;7.90;;;8.00;99.90;;;;;;5017888;28;20545;-68
2024/02/02 00:34:48;;;;;;;14.80;9.03;;;8.00;99.90;;;;;;5017871;28;20196;-68
2024/02/02 00:37:13;;;;;;;15.20;7.53;;;8.00;99.90;;;;;;5017144;28;20939;-68
2024/02/02 00:39:39;;;;;;;13.30;7.67;;;7.90;99.90;;;;;;5019184;28;20254;-68
2024/02/02 00:42:05;;;;;;;16.37;10.17;;;7.90;99.90;;;;;;5017924;28;20584;-68
2024/02/02 00:44:30;;;;;;;21.77;7.83;;;7.80;99.90;;;;;;5013548;28;20312;-67
2024/02/02 00:46:56;;;;;;;14.73;7.10;;;7.80;99.90;;;;;;5016038;28;20563;-67
2024/02/02 00:49:23;;;;;;;14.90;8.30;;;7.80;99.90;;;;;;5022403;28;20181;-67
2024/02/02 00:51:49;;;;;;;10.60;7.97;;;7.80;99.90;;;;;;5013152;28;20204;-68
2024/02/02 00:54:15;;;;;;;13.40;8.40;;;7.80;99.90;;;;;;5015019;28;20847;-68
2024/02/02 00:56:41;;;;;;;12.50;7.33;;;7.80;99.90;;;;;;5018044;28;20547;-68
2024/02/02 00:59:06;;;;;;;11.50;7.80;;;7.80;99.90;;;;;;5015222;28;20295;-68
2024/02/02 01:01:32;;;;;;;16.30;8.37;;;7.70;99.90;;;;;;5020715;28;20177;-68
2024/02/02 01:03:57;;;;;;;13.90;8.10;;;7.70;99.90;;;;;;5015005;28;20204;-68
2024/02/02 01:06:23;;;;;;;11.97;9.00;;;7.70;99.90;;;;;;5015778;28;20184;-68
2024/02/02 01:08:49;;;;;;;10.43;7.43;;;7.70;99.90;;;;;;5023829;28;20956;-68
2024/02/02 01:11:15;;;;;;;10.80;7.10;;;7.70;99.90;;;;;;5011447;28;20659;-68
2024/02/02 01:13:40;;;;;;;11.20;8.23;;;7.70;99.90;;;;;;5018917;28;20454;-68
2024/02/02 01:16:06;;;;;;;17.90;8.70;;;7.70;99.90;;;;;;5015675;28;20193;-68
2024/02/02 01:18:32;;;;;;;11.40;7.60;;;7.70;99.90;;;;;;5022006;28;20284;-68
2024/02/02 01:20:58;;;;;;;11.90;7.33;;;7.70;99.90;;;;;;5020164;28;20705;-68
2024/02/02 01:23:24;;;;;;;9.33;7.53;;;7.60;99.90;;;;;;5019151;28;20753;-68
2024/02/02 01:25:49;;;;;;;14.87;7.47;;;7.60;99.90;;;;;;5018180;28;20444;-68
2024/02/02 01:28:15;;;;;;;14.70;7.40;;;7.60;99.90;;;;;;5016987;28;20610;-68
2024/02/02 01:30:40;;;;;;;12.73;7.20;;;7.60;99.90;;;;;;5019007;28;20394;-68
2024/02/02 01:33:06;;;;;;;11.50;6.60;;;7.60;99.90;;;;;;5018026;28;20264;-68
2024/02/02 01:35:32;;;;;;;12.33;6.77;;;7.70;99.90;;;;;;5014598;28;20196;-68
2024/02/02 01:37:58;;;;;;;12.90;7.00;;;7.70;99.90;;;;;;5018332;28;20678;-68
2024/02/02 01:40:24;;;;;;;9.10;6.17;;;7.70;99.90;;;;;;5015230;28;20546;-67
2024/02/02 01:42:50;;;;;;;11.07;6.47;;;7.70;99.90;;;;;;5017816;28;20847;-68
2024/02/02 01:45:16;;;;;;;11.00;6.80;;;7.70;99.90;;;;;;5013849;28;20436;-68
2024/02/02 01:47:42;;;;;;;12.37;6.70;;;7.70;99.90;;;;;;5018193;28;20780;-67
2024/02/02 01:50:08;;;;;;;11.30;5.73;;;7.80;99.90;;;;;;5014004;28;20321;-68
2024/02/02 01:52:34;;;;;;;7.90;5.87;;;7.70;99.90;;;;;;5012425;28;20257;-68
2024/02/02 01:55:00;;;;;;;9.67;5.53;;;7.70;99.90;;;;;;5010717;28;20551;-68
2024/02/02 01:57:26;;;;;;;8.50;6.50;;;7.70;99.90;;;;;;5012911;28;20194;-68
2024/02/02 01:59:51;;;;;;;9.00;5.20;;;7.70;99.90;;;;;;5018700;28;20482;-68
2024/02/02 02:02:17;;;;;;;15.87;6.00;;;7.70;99.90;;;;;;5017468;28;20438;-68
2024/02/02 02:04:43;;;;;;;8.47;5.80;;;7.70;99.90;;;;;;5016435;28;20197;-68
2024/02/02 02:07:09;;;;;;;9.10;6.00;;;7.70;99.90;;;;;;5011332;28;20196;-68
2024/02/02 02:09:35;;;;;;;10.30;5.83;;;7.70;99.90;;;;;;5017954;28;20191;-68
2024/02/02 02:12:02;;;;;;;12.63;6.83;;;7.70;99.90;;;;;;5010938;28;20428;-68
2024/02/02 02:14:28;;;;;;;12.30;6.57;;;7.60;99.90;;;;;;5017621;28;20467;-68
2024/02/02 02:16:54;;;;;;;15.07;11.67;;;7.60;99.90;;;;;;5011698;28;20458;-67
2024/02/02 02:19:19;;;;;;;20.23;11.00;;;7.60;99.90;;;;;;5017458;28;20993;-67
2024/02/02 02:21:45;;;;;;;21.73;11.70;;;7.70;99.90;;;;;;5013523;28;20266;-67
2024/02/02 02:24:11;;;;;;;22.63;12.63;;;7.70;99.90;;;;;;5012486;28;20201;-67
2024/02/02 02:26:37;;;;;;;20.50;13.20;;;7.60;99.90;;;;;;5018387;28;20192;-67
2024/02/02 02:29:03;;;;;;;28.37;13.20;;;7.70;99.90;;;;;;5012546;28;20200;-67
2024/02/02 02:31:29;;;;;;;24.30;14.20;;;7.70;99.90;;;;;;5013955;28;20739;-67
2024/02/02 02:33:55;;;;;;;25.40;14.67;;;7.60;99.90;;;;;;5018073;28;20196;-68
2024/02/02 02:36:20;;;;;;;39.20;14.70;;;7.70;99.90;;;;;;5009724;28;20204;-67
2024/02/02 02:38:47;;;;;;;32.33;14.30;;;7.60;99.90;;;;;;5013561;28;20432;-68
2024/02/02 02:41:13;;;;;;;33.93;14.43;;;7.60;99.90;;;;;;5014349;28;20200;-68
2024/02/02 02:43:39;;;;;;;33.87;15.10;;;7.50;99.90;;;;;;5017182;28;20465;-67
2024/02/02 02:46:06;;;;;;;46.60;15.40;;;7.40;99.90;;;;;;5016785;28;20485;-68
2024/02/02 02:48:31;;;;;;;32.73;15.67;;;7.40;99.90;;;;;;5010573;28;20530;-67
2024/02/02 02:50:57;;;;;;;38.20;13.37;;;7.40;99.90;;;;;;5016468;28;20620;-67
2024/02/02 02:53:23;;;;;;;37.63;14.50;;;7.40;99.90;;;;;;5013811;28;20290;-67
2024/02/02 02:55:48;;;;;;;65.10;15.63;;;7.40;99.90;;;;;;5012181;28;20207;-68
2024/02/02 02:58:14;;;;;;;37.63;15.47;;;7.30;99.90;;;;;;5011275;28;20669;-68
2024/02/02 03:00:39;;;;;;;57.63;16.47;;;7.20;99.90;;;;;;5016353;28;20217;-69
2024/02/02 03:03:05;;;;;;;40.00;15.90;;;7.20;99.90;;;;;;5017629;28;20191;-68
2024/02/02 03:05:31;;;;;;;39.77;16.20;;;7.20;99.90;;;;;;5014054;28;20601;-68
2024/02/02 03:07:56;;;;;;;43.80;15.17;;;7.10;99.90;;;;;;5013890;28;21012;-68
2024/02/02 03:10:25;;;;;;;28.80;14.30;;;7.10;99.90;;;;;;5012193;28;20229;-68
2024/02/02 03:12:51;;;;;;;30.63;17.87;;;7.00;99.90;;;;;;5015739;28;20189;-68
2024/02/02 03:15:18;;;;;;;29.53;15.70;;;7.10;99.90;;;;;;5008669;28;20487;-68
2024/02/02 03:17:44;;;;;;;49.37;15.80;;;6.90;99.90;;;;;;5017538;28;20541;-68
2024/02/02 03:20:11;;;;;;;41.67;16.97;;;6.90;99.90;;;;;;5018984;28;20546;-68
2024/02/02 03:22:37;;;;;;;55.63;16.90;;;6.80;99.90;;;;;;5012278;28;20451;-68
2024/02/02 03:25:03;;;;;;;28.47;16.60;;;6.90;99.90;;;;;;5015347;28;20501;-68
2024/02/02 03:27:28;;;;;;;84.33;19.20;;;6.90;99.90;;;;;;5013185;28;20790;-68
2024/02/02 03:29:54;;;;;;;67.50;18.00;;;6.90;99.90;;;;;;5015320;28;20423;-68
2024/02/02 03:32:19;;;;;;;37.87;15.63;;;6.90;99.90;;;;;;5012983;28;20188;-68
2024/02/02 03:34:45;;;;;;;38.60;17.83;;;6.90;99.90;;;;;;5016951;28;20258;-68
2024/02/02 03:37:11;;;;;;;55.70;21.70;;;6.90;99.90;;;;;;5012155;28;20267;-68
2024/02/02 03:39:36;;;;;;;43.73;18.23;;;6.70;99.90;;;;;;5016813;28;20262;-68
2024/02/02 03:42:04;;;;;;;28.77;17.60;;;6.90;99.90;;;;;;5013836;28;20598;-68
2024/02/02 03:44:30;;;;;;;28.07;19.30;;;6.80;99.90;;;;;;5014015;28;20288;-68
2024/02/02 03:46:55;;;;;;;25.27;19.40;;;6.90;99.90;;;;;;5014751;28;20529;-68
2024/02/02 03:49:21;;;;;;;29.23;19.37;;;6.90;99.90;;;;;;5012515;28;20466;-68
2024/02/02 03:51:46;;;;;;;26.77;19.17;;;6.90;99.90;;;;;;5013705;28;20216;-68
2024/02/02 03:54:12;;;;;;;27.47;18.90;;;7.10;99.90;;;;;;5009433;28;20211;-68
2024/02/02 03:56:40;;;;;;;27.20;17.97;;;7.30;99.90;;;;;;5012377;28;20239;-68
2024/02/02 03:59:06;;;;;;;23.90;18.33;;;7.30;99.90;;;;;;5008025;28;20181;-67
2024/02/02 04:01:31;;;;;;;23.03;18.53;;;7.30;99.90;;;;;;5009515;28;20430;-68
2024/02/02 04:03:57;;;;;;;28.20;20.00;;;7.30;99.90;;;;;;5008747;28;20438;-67
2024/02/02 04:06:23;;;;;;;27.07;18.40;;;7.30;99.90;;;;;;5013842;28;20189;-67
2024/02/02 04:08:48;;;;;;;26.07;18.43;;;7.30;99.90;;;;;;5021590;28;20181;-67
2024/02/02 04:11:14;;;;;;;24.17;18.83;;;7.40;99.90;;;;;;5015545;28;20211;-67
2024/02/02 04:13:40;;;;;;;23.00;17.90;;;7.30;99.90;;;;;;5018038;28;20215;-68
2024/02/02 04:16:06;;;;;;;31.90;20.40;;;7.40;99.90;;;;;;5014296;28;20644;-67
2024/02/02 04:18:31;;;;;;;28.20;20.23;;;7.40;99.90;;;;;;5008661;28;20184;-67
2024/02/02 04:20:57;;;;;;;28.87;20.97;;;7.50;99.90;;;;;;5015028;28;20879;-68
2024/02/02 04:23:24;;;;;;;24.40;18.13;;;7.60;99.90;;;;;;5010940;28;20284;-68
2024/02/02 04:25:50;;;;;;;24.87;18.53;;;7.60;99.90;;;;;;5016904;28;20180;-67
2024/02/02 04:28:15;;;;;;;27.57;19.70;;;7.50;99.90;;;;;;5009016;28;20436;-68
2024/02/02 04:30:41;;;;;;;23.70;18.17;;;7.50;99.90;;;;;;5012492;28;20280;-68
2024/02/02 04:33:07;;;;;;;22.77;17.53;;;7.60;99.90;;;;;;5011532;28;20196;-68
2024/02/02 04:35:34;;;;;;;24.80;18.10;;;7.60;99.90;;;;;;5009781;28;20230;-69
2024/02/02 04:38:01;;;;;;;21.07;16.63;;;7.50;99.90;;;;;;5012954;28;20242;-68
2024/02/02 04:40:27;;;;;;;22.67;17.13;;;7.60;99.90;;;;;;5013385;28;20515;-68
2024/02/02 04:42:53;;;;;;;20.20;17.57;;;7.60;99.90;;;;;;5015061;28;20450;-69
2024/02/02 04:45:18;;;;;;;23.57;16.83;;;7.50;99.90;;;;;;5013010;28;20219;-69
2024/02/02 04:47:44;;;;;;;22.80;16.50;;;7.40;99.90;;;;;;5014830;28;20184;-68
2024/02/02 04:50:09;;;;;;;23.83;16.87;;;7.40;99.90;;;;;;5013176;28;20243;-68
2024/02/02 04:52:35;;;;;;;19.33;15.87;;;7.40;99.90;;;;;;5014072;28;20186;-68
2024/02/02 04:55:01;;;;;;;22.00;16.37;;;7.60;99.90;;;;;;5014118;28;20211;-68
2024/02/02 04:57:27;;;;;;;22.47;16.97;;;7.60;99.90;;;;;;5018001;28;20204;-68
2024/02/02 04:59:54;;;;;;;23.80;16.73;;;7.60;99.90;;;;;;5018353;28;20474;-68
2024/02/02 05:02:19;;;;;;;21.17;15.53;;;7.70;99.90;;;;;;5014318;28;20556;-68
2024/02/02 05:04:45;;;;;;;20.87;16.60;;;7.80;99.90;;;;;;5017063;28;20466;-68
2024/02/02 05:07:11;;;;;;;20.80;16.63;;;7.90;99.90;;;;;;5016241;28;20607;-69
2024/02/02 05:09:36;;;;;;;18.63;15.87;;;7.90;99.90;;;;;;5012113;28;20644;-69
2024/02/02 05:12:02;;;;;;;20.83;17.03;;;8.00;99.90;;;;;;5015500;28;20184;-68
2024/02/02 05:14:28;;;;;;;18.97;16.30;;;8.10;99.90;;;;;;5019606;28;20974;-67
2024/02/02 05:16:53;;;;;;;22.53;16.17;;;8.20;99.90;;;;;;5018182;28;20719;-67
2024/02/02 05:19:19;;;;;;;20.77;16.93;;;8.10;99.90;;;;;;5014424;28;20557;-67
2024/02/02 05:21:44;;;;;;;21.87;16.03;;;8.10;99.90;;;;;;5018018;28;20263;-67
2024/02/02 05:24:11;;;;;;;21.40;17.33;;;8.10;99.90;;;;;;5016259;28;20282;-67
2024/02/02 05:26:36;;;;;;;20.67;15.80;;;8.10;99.90;;;;;;5019053;28;20617;-68
2024/02/02 05:29:02;;;;;;;23.70;17.20;;;8.00;99.90;;;;;;5018460;28;20504;-68
2024/02/02 05:31:28;;;;;;;19.70;15.90;;;8.10;99.90;;;;;;5012463;28;20197;-68
2024/02/02 05:33:53;;;;;;;19.50;16.10;;;8.20;99.90;;;;;;5018871;28;20200;-68
2024/02/02 05:36:19;;;;;;;20.90;16.57;;;8.20;99.90;;;;;;5026574;28;20204;-68
2024/02/02 05:38:44;;;;;;;19.97;16.20;;;8.20;99.90;;;;;;5017310;28;20559;-68
2024/02/02 05:41:10;;;;;;;23.77;18.07;;;8.20;99.90;;;;;;5016153;28;20208;-68
2024/02/02 05:43:35;;;;;;;24.60;16.93;;;8.20;99.90;;;;;;5017970;28;20586;-68
2024/02/02 05:46:01;;;;;;;24.10;18.37;;;8.20;99.90;;;;;;5018729;28;20177;-68
2024/02/02 05:48:26;;;;;;;29.33;19.93;;;8.20;99.90;;;;;;5014140;28;20192;-68
2024/02/02 05:50:52;;;;;;;25.87;19.43;;;8.30;99.90;;;;;;5015450;28;20282;-68
2024/02/02 05:53:18;;;;;;;21.53;16.90;;;8.30;99.90;;;;;;5015516;28;20301;-69
2024/02/02 05:55:43;;;;;;;26.33;17.40;;;8.40;99.90;;;;;;5017308;28;20196;-68
2024/02/02 05:58:09;;;;;;;23.30;17.97;;;8.30;99.90;;;;;;5013793;28;20203;-68
2024/02/02 06:00:38;;;;;;;21.97;16.10;;;8.40;99.90;;;;;;5012963;28;20211;-68
2024/02/02 06:03:04;;;;;;;21.50;17.10;;;8.40;99.90;;;;;;5014197;28;20196;-68
2024/02/02 06:05:32;;;;;;;18.70;15.30;;;8.40;99.90;;;;;;5014132;28;20799;-68
2024/02/02 06:08:00;;;;;;;24.00;16.70;;;8.40;99.90;;;;;;5013278;28;20185;-68
2024/02/02 06:10:25;;;;;;;19.10;15.40;;;8.40;99.90;;;;;;5014879;28;20920;-67
2024/02/02 06:12:51;;;;;;;21.90;16.30;;;8.30;99.90;;;;;;5020688;28;20434;-67
2024/02/02 06:15:16;;;;;;;18.93;15.73;;;8.30;99.90;;;;;;5018558;28;20731;-68
2024/02/02 06:17:42;;;;;;;19.33;16.30;;;8.30;99.90;;;;;;5016282;28;20283;-67
2024/02/02 06:20:08;;;;;;;21.67;16.37;;;8.30;99.90;;;;;;5016640;28;20212;-67
2024/02/02 06:22:34;;;;;;;19.20;15.57;;;8.40;99.90;;;;;;5016765;28;20184;-67
2024/02/02 06:25:00;;;;;;;18.50;15.20;;;8.30;99.90;;;;;;5015432;28;20443;-67
2024/02/02 06:27:27;;;;;;;26.43;16.50;;;8.30;99.90;;;;;;5020366;28;20435;-67
2024/02/02 06:29:52;;;;;;;18.77;16.00;;;8.40;99.90;;;;;;5015367;28;20612;-67
2024/02/02 06:32:21;;;;;;;23.00;15.53;;;8.40;99.90;;;;;;5010578;28;20430;-67
2024/02/02 06:34:48;;;;;;;19.63;15.50;;;8.40;99.90;;;;;;5013038;28;20741;-68
2024/02/02 06:37:14;;;;;;;20.53;15.43;;;8.30;99.90;;;;;;5012652;28;20428;-68
2024/02/02 06:39:40;;;;;;;18.80;15.17;;;8.30;99.90;;;;;;5013941;28;20465;-68
2024/02/02 06:42:06;;;;;;;19.13;16.10;;;8.30;99.90;;;;;;5010228;28;20272;-68
2024/02/02 06:44:32;;;;;;;20.57;16.00;;;8.20;99.90;;;;;;5017649;28;20444;-68
2024/02/02 06:46:58;;;;;;;19.20;14.63;;;8.20;99.90;;;;;;5015236;28;20188;-68
2024/02/02 06:49:24;;;;;;;20.30;14.60;;;8.30;99.90;;;;;;5019081;28;20448;-68
2024/02/02 06:51:49;;;;;;;20.00;14.33;;;8.30;99.90;;;;;;5012801;28;20239;-68
2024/02/02 06:54:15;;;;;;;19.47;14.10;;;8.30;99.90;;;;;;5015852;28;20217;-68
2024/02/02 06:56:42;;;;;;;16.30;13.77;;;8.30;99.90;;;;;;5012937;28;20268;-68
2024/02/02 06:59:11;;;;;;;20.77;14.50;;;8.30;99.90;;;;;;5008989;28;20186;-68
2024/02/02 07:01:37;;;;;;;19.60;14.30;;;8.40;99.90;;;;;;5014615;28;20431;-69
2024/02/02 07:04:09;;;;;;;16.70;12.97;;;8.40;99.90;;;;;;5021856;28;20438;-68
2024/02/02 07:06:35;;;;;;;18.33;13.60;;;8.40;99.90;;;;;;5012108;28;20434;-69
2024/02/02 07:09:06;;;;;;;19.30;13.53;;;8.40;99.90;;;;;;5010480;28;20531;-70
2024/02/02 07:11:34;;;;;;;18.60;12.00;;;8.40;99.90;;;;;;5012230;28;20432;-67
2024/02/02 07:14:05;;;;;;;17.00;12.70;;;8.40;99.90;;;;;;5017626;28;20846;-68
2024/02/02 07:16:32;;;;;;;18.97;14.00;;;8.50;99.90;;;;;;5017134;28;20800;-68
2024/02/02 07:18:58;;;;;;;15.40;13.10;;;8.40;99.90;;;;;;5014292;28;20424;-68
2024/02/02 07:21:30;;;;;;;16.03;12.80;;;8.40;99.90;;;;;;5017860;28;20467;-68
2024/02/02 07:23:56;;;;;;;16.27;12.50;;;8.30;99.90;;;;;;5018123;28;20292;-69
2024/02/02 07:26:32;;;;;;;16.80;11.93;;;8.30;99.90;;;;;;5015299;28;21055;-68
2024/02/02 07:28:58;;;;;;;16.63;12.63;;;8.40;99.90;;;;;;5016075;28;20407;-69
2024/02/02 07:31:30;;;;;;;19.40;13.50;;;8.40;99.90;;;;;;5017392;28;20428;-69
2024/02/02 07:34:02;;;;;;;17.40;12.60;;;8.40;99.90;;;;;;5018449;28;20458;-68
2024/02/02 07:36:33;;;;;;;16.70;12.77;;;8.40;99.90;;;;;;5017624;28;20434;-69
2024/02/02 07:39:00;;;;;;;16.60;12.23;;;8.40;99.90;;;;;;5016816;28;20458;-68
2024/02/02 07:41:27;;;;;;;15.63;12.53;;;8.40;99.90;;;;;;5016326;28;21544;-68
2024/02/02 07:44:01;;;;;;;17.63;12.03;;;8.40;99.90;;;;;;5016181;28;20820;-68
2024/02/02 07:46:27;;;;;;;18.30;12.00;;;8.40;99.90;;;;;;5016951;28;20499;-68
2024/02/02 07:48:54;;;;;;;15.10;11.10;;;8.50;99.90;;;;;;5018260;28;20947;-69
2024/02/02 07:51:22;;;;;;;19.03;12.43;;;8.50;99.90;;;;;;5011774;28;20804;-69
2024/02/02 07:53:48;;;;;;;19.40;12.60;;;8.50;99.90;;;;;;5016521;28;20473;-69
2024/02/02 07:56:15;;;;;;;17.03;12.00;;;8.50;99.90;;;;;;5013510;28;20421;-69
2024/02/02 07:58:41;;;;;;;14.90;11.10;;;8.50;99.90;;;;;;5010771;28;20435;-69
2024/02/02 08:01:10;;;;;;;14.93;12.27;;;8.50;99.90;;;;;;5013027;28;20965;-69
2024/02/02 08:03:37;;;;;;;16.07;12.73;;;8.50;99.90;;;;;;5016808;28;20205;-69
2024/02/02 08:06:03;;;;;;;15.27;11.97;;;8.60;99.90;;;;;;5013547;28;20493;-70
2024/02/02 08:08:33;;;;;;;13.60;10.93;;;8.70;99.90;;;;;;5015221;28;20951;-69
2024/02/02 08:11:02;;;;;;;14.97;11.50;;;8.70;99.90;;;;;;5016476;28;20425;-67
2024/02/02 08:13:27;;;;;;;16.43;11.40;;;8.70;99.90;;;;;;5015874;28;20479;-68
2024/02/02 08:15:53;;;;;;;18.83;11.97;;;8.60;99.90;;;;;;5012073;28;20479;-67
2024/02/02 08:18:19;;;;;;;14.27;10.40;;;8.70;99.90;;;;;;5009176;28;20979;-68
2024/02/02 08:20:46;;;;;;;12.53;10.27;;;8.60;99.90;;;;;;5013519;28;21066;-68
2024/02/02 08:23:12;;;;;;;13.03;9.60;;;8.60;99.90;;;;;;5023339;28;20177;-68
2024/02/02 08:25:37;;;;;;;12.97;10.00;;;8.60;99.90;;;;;;5012106;28;20778;-68
2024/02/02 08:28:03;;;;;;;15.70;10.83;;;8.60;99.90;;;;;;5018504;28;20189;-68
2024/02/02 08:30:29;;;;;;;14.50;11.20;;;8.60;99.90;;;;;;5015693;28;20663;-67
2024/02/02 08:32:55;;;;;;;13.20;10.10;;;8.60;99.90;;;;;;5015925;28;20442;-67
2024/02/02 08:35:22;;;;;;;15.20;10.20;;;8.60;99.90;;;;;;5020197;28;20204;-67
2024/02/02 08:37:55;;;;;;;14.57;9.87;;;8.80;99.90;;;;;;5025653;28;20422;-67
2024/02/02 08:40:44;;;;;;;12.23;10.07;;;8.80;99.90;;;;;;5020967;28;20455;-67
2024/02/02 08:43:15;;;;;;;16.73;10.63;;;8.80;99.90;;;;;;5021810;28;20785;-68
2024/02/02 08:45:41;;;;;;;11.90;9.00;;;8.80;99.90;;;;;;5020507;28;20436;-68
2024/02/02 08:48:25;;;;;;;12.33;9.90;;;8.80;99.90;;;;;;5017870;28;20423;-68
2024/02/02 08:50:53;;;;;;;14.33;9.70;;;8.80;99.90;;;;;;5018143;28;20610;-68
2024/02/02 08:53:19;;;;;;;12.63;8.90;;;8.90;99.90;;;;;;5015800;28;20807;-68
2024/02/02 08:55:45;;;;;;;12.47;9.73;;;9.10;99.90;;;;;;5016589;28;20423;-68
2024/02/02 08:58:33;;;;;;;13.17;9.80;;;9.10;99.90;;;;;;5015988;28;20280;-67
2024/02/02 09:00:59;;;;;;;11.80;8.80;;;9.10;99.90;;;;;;5015010;28;21338;-68
2024/02/02 09:03:45;;;;;;;11.07;9.17;;;9.20;99.90;;;;;;5014901;28;20439;-67
2024/02/02 09:06:39;;;;;;;13.47;8.30;;;9.20;99.90;;;;;;5015472;28;20176;-68
2024/02/02 09:09:05;;;;;;;12.93;8.87;;;9.20;99.90;;;;;;5016209;28;20412;-68
2024/02/02 09:11:31;;;;;;;13.40;8.07;;;9.10;99.90;;;;;;5013362;28;20442;-68
2024/02/02 09:14:06;;;;;;;11.17;7.73;;;9.20;99.90;;;;;;5013836;28;20455;-69
2024/02/02 09:16:42;;;;;;;12.20;7.30;;;9.20;99.90;;;;;;5014213;28;20805;-68
2024/02/02 09:19:26;;;;;;;10.33;7.20;;;9.30;99.90;;;;;;5012731;28;20438;-68
2024/02/02 09:21:54;;;;;;;14.17;7.60;;;9.40;99.90;;;;;;5012735;28;20622;-68
2024/02/02 09:24:43;;;;;;;14.03;7.07;;;9.40;99.90;;;;;;5019731;28;20519;-68
2024/02/02 09:27:13;;;;;;;12.60;7.00;;;9.30;99.90;;;;;;5018360;28;20886;-68
2024/02/02 09:29:45;;;;;;;8.60;6.77;;;9.30;99.90;;;;;;5025932;28;20439;-69
2024/02/02 09:32:13;;;;;;;14.47;8.13;;;9.30;99.90;;;;;;5009143;28;20432;-68
2024/02/02 09:34:40;;;;;;;11.63;8.00;;;9.30;99.90;;;;;;5017314;28;20537;-68
2024/02/02 09:37:14;;;;;;;14.40;7.60;;;9.40;99.90;;;;;;5015353;28;20427;-69
2024/02/02 09:39:55;;;;;;;11.47;8.00;;;9.40;99.90;;;;;;5011820;28;20946;-69
2024/02/02 09:42:37;;;;;;;10.97;7.80;;;9.50;99.90;;;;;;5015706;28;20431;-68
2024/02/02 09:45:07;;;;;;;11.80;8.63;;;9.50;99.90;;;;;;5019543;28;20981;-68
2024/02/02 09:47:47;;;;;;;11.60;7.70;;;9.50;99.90;;;;;;5019520;28;20446;-68
2024/02/02 09:50:16;;;;;;;13.60;8.40;;;9.60;99.90;;;;;;5015711;28;20490;-68
2024/02/02 09:53:05;;;;;;;11.13;8.30;;;9.60;99.90;;;;;;5017167;28;20717;-68
2024/02/02 09:56:12;;;;;;;12.13;8.70;;;9.50;99.90;;;;;;5018286;28;20544;-68
2024/02/02 09:58:51;;;;;;;13.50;8.57;;;9.60;99.90;;;;;;5018441;28;20439;-67
2024/02/02 10:01:41;;;;;;;11.40;8.40;;;9.70;99.90;;;;;;5016504;28;20538;-67
2024/02/02 10:04:32;;;;;;;12.17;8.50;;;9.60;99.90;;;;;;5017537;28;20477;-68
2024/02/02 10:07:30;;;;;;;12.57;7.57;;;9.40;99.90;;;;;;5015926;28;20508;-68
2024/02/02 10:10:22;;;;;;;11.27;7.93;;;9.40;99.90;;;;;;5020260;28;20478;-68
2024/02/02 10:13:11;;;;;;;9.90;7.47;;;9.40;99.90;;;;;;5034992;28;20933;-68
2024/02/02 10:15:48;;;;;;;15.17;9.20;;;9.40;99.90;;;;;;5018908;28;20762;-68
2024/02/02 10:18:35;;;;;;;13.63;8.10;;;9.60;99.90;;;;;;5017875;28;20496;-68
2024/02/02 10:21:13;;;;;;;12.90;9.50;;;9.70;99.90;;;;;;5012020;28;20546;-68
2024/02/02 10:23:42;;;;;;;9.70;7.20;;;9.70;99.90;;;;;;5021836;28;20459;-68
2024/02/02 10:26:32;;;;;;;12.83;7.87;;;9.80;99.90;;;;;;5014253;28;20834;-68
2024/02/02 10:29:10;;;;;;;11.07;6.87;;;10.00;99.90;;;;;;5016390;28;21234;-68
2024/02/02 10:32:04;;;;;;;10.97;7.43;;;10.10;99.90;;;;;;5015097;28;20435;-68
2024/02/02 10:34:33;;;;;;;10.17;8.30;;;10.20;99.90;;;;;;5016595;28;20617;-69
2024/02/02 10:37:26;;;;;;;9.50;6.30;;;10.20;99.90;;;;;;5011417;28;20948;-69
2024/02/02 10:40:16;;;;;;;9.67;6.30;;;10.20;99.90;;;;;;5020265;28;20524;-69
2024/02/02 10:43:14;;;;;;;7.83;6.20;;;10.30;99.90;;;;;;5012709;28;20459;-68
2024/02/02 10:45:58;;;;;;;9.80;6.27;;;10.40;99.90;;;;;;5011647;28;20796;-67
2024/02/02 10:48:42;;;;;;;6.93;5.30;;;10.40;99.90;;;;;;5014509;28;20408;-68
2024/02/02 10:51:36;;;;;;;8.50;5.80;;;10.50;99.90;;;;;;5009982;28;20620;-68
2024/02/02 10:54:13;;;;;;;8.87;5.43;;;10.50;99.90;;;;;;5011639;28;20854;-67
2024/02/02 10:56:49;;;;;;;9.40;6.27;;;10.40;99.90;;;;;;5017489;28;20431;-68
2024/02/02 10:59:52;;;;;;;12.53;6.30;;;10.40;99.90;;;;;;5015848;28;20508;-68
2024/02/02 11:02:34;;;;;;;11.90;5.97;;;10.60;99.90;;;;;;5014875;28;20510;-68
2024/02/02 11:05:21;;;;;;;9.00;6.40;;;10.60;99.90;;;;;;5016413;28;20427;-68
2024/02/02 11:08:06;;;;;;;11.23;6.30;;;10.60;99.90;;;;;;5012326;28;20420;-68
2024/02/02 11:10:40;;;;;;;11.50;7.23;;;10.50;99.90;;;;;;5014709;28;20470;-68
2024/02/02 11:13:39;;;;;;;9.97;7.50;;;10.60;99.90;;;;;;5016136;28;20462;-69
2024/02/02 11:16:34;;;;;;;8.73;6.70;;;10.80;99.90;;;;;;5016188;28;20462;-68
2024/02/02 11:19:02;;;;;;;14.97;7.40;;;10.70;99.90;;;;;;5019156;28;20431;-68
2024/02/02 11:21:55;;;;;;;9.23;6.77;;;10.70;99.90;;;;;;5016747;28;20471;-68
2024/02/02 11:24:50;;;;;;;10.47;6.97;;;11.00;99.90;;;;;;5019560;28;20462;-69
2024/02/02 11:27:22;;;;;;;8.70;6.73;;;10.90;99.90;;;;;;5016878;28;21017;-69
2024/02/02 11:30:05;;;;;;;6.90;5.63;;;10.90;99.90;;;;;;5020492;28;20459;-69
2024/02/02 11:32:53;;;;;;;7.40;4.93;;;11.00;99.90;;;;;;5026289;28;20439;-68
2024/02/02 11:35:19;;;;;;;7.00;5.00;;;11.20;99.90;;;;;;5019169;28;20471;-69
2024/02/02 11:38:02;;;;;;;10.23;5.43;;;11.10;99.90;;;;;;5020043;28;20803;-69
2024/02/02 11:40:30;;;;;;;7.67;4.70;;;11.20;99.90;;;;;;5018120;28;20220;-69
2024/02/02 11:42:58;;;;;;;6.77;5.20;;;11.20;99.90;;;;;;5017690;28;20452;-69
2024/02/02 11:45:27;;;;;;;10.80;5.70;;;11.30;99.90;;;;;;5022863;28;20505;-68
2024/02/02 11:48:03;;;;;;;7.63;5.57;;;11.30;99.90;;;;;;5019370;28;20446;-68
2024/02/02 11:50:48;;;;;;;8.73;5.57;;;11.50;99.90;;;;;;5021535;28;20504;-69
2024/02/02 11:53:55;;;;;;;8.00;5.50;;;11.50;99.90;;;;;;5019164;28;20416;-70
2024/02/02 11:56:29;;;;;;;8.67;5.30;;;11.60;99.90;;;;;;5016886;28;20959;-68
2024/02/02 11:59:17;;;;;;;11.57;6.00;;;11.60;99.90;;;;;;5019847;28;20437;-68
2024/02/02 12:02:17;;;;;;;6.23;4.37;;;11.80;99.90;;;;;;5018031;28;20422;-69
2024/02/02 12:05:00;;;;;;;6.23;5.53;;;11.80;99.90;;;;;;5023191;28;21123;-68
2024/02/02 12:07:35;;;;;;;9.23;5.67;;;11.90;99.90;;;;;;5019547;28;20441;-69
2024/02/02 12:10:03;;;;;;;9.20;5.40;;;11.80;99.90;;;;;;5019008;28;20433;-69
2024/02/02 12:12:33;;;;;;;8.57;5.70;;;11.90;99.90;;;;;;5014763;28;20400;-69
2024/02/02 12:14:59;;;;;;;9.13;4.73;;;12.10;99.90;;;;;;5013461;28;20443;-69
2024/02/02 12:17:25;;;;;;;8.33;4.40;;;12.20;99.90;;;;;;5011537;28;20729;-68
2024/02/02 12:19:51;;;;;;;6.10;4.90;;;12.10;99.90;;;;;;5022192;28;20225;-68
2024/02/02 12:22:17;;;;;;;11.20;5.57;;;12.20;99.90;;;;;;5015154;28;20424;-67
2024/02/02 12:24:43;;;;;;;6.23;4.27;;;12.30;99.90;;;;;;5011242;28;20445;-67
2024/02/02 12:27:08;;;;;;;8.47;5.20;;;12.20;99.90;;;;;;5011742;28;20805;-68
2024/02/02 12:29:36;;;;;;;5.07;4.20;;;12.20;99.90;;;;;;5013394;28;20204;-68
2024/02/02 12:32:03;;;;;;;5.90;4.70;;;12.50;99.90;;;;;;5014043;28;20606;-68
2024/02/02 12:34:29;;;;;;;5.90;4.50;;;12.50;99.90;;;;;;5013014;28;20836;-70
2024/02/02 12:36:58;;;;;;;5.90;4.47;;;12.60;99.90;;;;;;5012787;28;20501;-69
2024/02/02 12:39:31;;;;;;;10.20;5.93;;;12.60;99.90;;;;;;5015480;28;20191;-68
2024/02/02 12:42:02;;;;;;;6.10;5.20;;;12.50;99.90;;;;;;5019481;28;20432;-68
2024/02/02 12:44:28;;;;;;;5.70;4.63;;;12.60;99.90;;;;;;5009131;28;20942;-65
2024/02/02 12:46:54;;;;;;;7.43;5.53;;;12.80;99.90;;;;;;5016909;28;20515;-69
2024/02/02 12:49:21;;;;;;;5.80;5.20;;;12.90;99.90;;;;;;5012099;28;20448;-67
2024/02/02 12:51:47;;;;;;;7.43;5.63;;;13.10;99.90;;;;;;5018899;28;20558;-67
2024/02/02 12:54:13;;;;;;;6.83;5.83;;;13.10;99.90;;;;;;5019639;28;20537;-67